sensor_id;sensor_type;location;lat;lon;timestamp;P1;durP1;ratioP1;P2;durP2;ratioP2
7383;SDS011;3733;47.994;8.820;2024-03-25T00:00:11;7.40;;;4.07;;
7383;SDS011;3733;47.994;8.820;2024-03-25T00:02:38;6.33;;;2.80;;
7383;SDS011;3733;47.994;8.820;2024-03-25T00:05:05;7.23;;;3.80;;
7383;SDS011;3733;47.994;8.820;2024-03-25T00:07:32;7.17;;;3.73;;
7383;SDS011;3733;47.994;8.820;2024-03-25T00:09:58;6.23;;;3.93;;
7383;SDS011;3733;47.994;8.820;2024-03-25T00:12:25;7.87;;;3.37;;
7383;SDS011;3733;47.994;8.820;2024-03-25T00:14:51;4.10;;;3.70;;
7383;SDS011;3733;47.994;8.820;2024-03-25T00:17:16;5.80;;;3.30;;
7383;SDS011;3733;47.994;8.820;2024-03-25T00:19:42;8.00;;;3.60;;
7383;SDS011;3733;47.994;8.820;2024-03-25T00:22:13;4.17;;;3.30;;
7383;SDS011;3733;47.994;8.820;2024-03-25T00:24:39;5.83;;;2.80;;
7383;SDS011;3733;47.994;8.820;2024-03-25T00:27:04;8.20;;;5.10;;
7383;SDS011;3733;47.994;8.820;2024-03-25T00:29:30;8.57;;;5.03;;
7383;SDS011;3733;47.994;8.820;2024-03-25T00:31:55;6.97;;;4.00;;
7383;SDS011;3733;47.994;8.820;2024-03-25T00:34:21;7.97;;;3.63;;
7383;SDS011;3733;47.994;8.820;2024-03-25T00:36:47;7.67;;;3.80;;
7383;SDS011;3733;47.994;8.820;2024-03-25T00:39:13;3.33;;;3.03;;
7383;SDS011;3733;47.994;8.820;2024-03-25T00:41:38;3.07;;;2.30;;
7383;SDS011;3733;47.994;8.820;2024-03-25T00:44:04;3.23;;;2.90;;
7383;SDS011;3733;47.994;8.820;2024-03-25T00:46:30;8.30;;;3.10;;
7383;SDS011;3733;47.994;8.820;2024-03-25T00:48:55;4.77;;;3.20;;
7383;SDS011;3733;47.994;8.820;2024-03-25T00:51:21;6.43;;;4.00;;
7383;SDS011;3733;47.994;8.820;2024-03-25T00:53:47;7.03;;;3.43;;
7383;SDS011;3733;47.994;8.820;2024-03-25T00:56:12;5.53;;;2.93;;
7383;SDS011;3733;47.994;8.820;2024-03-25T00:58:38;4.40;;;3.00;;
7383;SDS011;3733;47.994;8.820;2024-03-25T01:01:04;7.63;;;3.70;;
7383;SDS011;3733;47.994;8.820;2024-03-25T01:03:29;6.17;;;3.60;;
7383;SDS011;3733;47.994;8.820;2024-03-25T01:05:55;4.63;;;3.10;;
7383;SDS011;3733;47.994;8.820;2024-03-25T01:08:20;5.00;;;3.50;;
7383;SDS011;3733;47.994;8.820;2024-03-25T01:10:46;4.27;;;3.00;;
7383;SDS011;3733;47.994;8.820;2024-03-25T01:13:11;5.00;;;3.27;;
7383;SDS011;3733;47.994;8.820;2024-03-25T01:15:37;5.70;;;3.20;;
7383;SDS011;3733;47.994;8.820;2024-03-25T01:18:02;3.80;;;3.10;;
7383;SDS011;3733;47.994;8.820;2024-03-25T01:20:28;5.20;;;3.40;;
7383;SDS011;3733;47.994;8.820;2024-03-25T01:22:54;4.40;;;2.70;;
7383;SDS011;3733;47.994;8.820;2024-03-25T01:25:19;4.87;;;2.80;;
7383;SDS011;3733;47.994;8.820;2024-03-25T01:27:45;14.83;;;2.93;;
7383;SDS011;3733;47.994;8.820;2024-03-25T01:30:11;21.63;;;3.80;;
7383;SDS011;3733;47.994;8.820;2024-03-25T01:32:37;9.90;;;5.00;;
7383;SDS011;3733;47.994;8.820;2024-03-25T01:35:03;15.63;;;3.80;;
7383;SDS011;3733;47.994;8.820;2024-03-25T01:37:28;6.60;;;4.27;;
7383;SDS011;3733;47.994;8.820;2024-03-25T01:39:54;6.27;;;4.33;;
7383;SDS011;3733;47.994;8.820;2024-03-25T01:42:19;13.30;;;4.40;;
7383;SDS011;3733;47.994;8.820;2024-03-25T01:44:46;8.90;;;4.23;;
7383;SDS011;3733;47.994;8.820;2024-03-25T01:47:13;6.60;;;4.37;;
7383;SDS011;3733;47.994;8.820;2024-03-25T01:49:39;6.23;;;4.07;;
7383;SDS011;3733;47.994;8.820;2024-03-25T01:52:04;12.00;;;6.53;;
7383;SDS011;3733;47.994;8.820;2024-03-25T01:54:31;6.47;;;4.83;;
7383;SDS011;3733;47.994;8.820;2024-03-25T01:56:57;7.90;;;5.17;;
7383;SDS011;3733;47.994;8.820;2024-03-25T01:59:23;8.77;;;5.33;;
7383;SDS011;3733;47.994;8.820;2024-03-25T02:01:51;8.47;;;4.47;;
7383;SDS011;3733;47.994;8.820;2024-03-25T02:04:16;11.03;;;5.67;;
7383;SDS011;3733;47.994;8.820;2024-03-25T02:06:42;9.43;;;5.10;;
7383;SDS011;3733;47.994;8.820;2024-03-25T02:09:09;8.50;;;5.00;;
7383;SDS011;3733;47.994;8.820;2024-03-25T02:11:37;16.10;;;4.70;;
7383;SDS011;3733;47.994;8.820;2024-03-25T02:14:03;11.63;;;5.90;;
7383;SDS011;3733;47.994;8.820;2024-03-25T02:16:30;6.70;;;4.40;;
7383;SDS011;3733;47.994;8.820;2024-03-25T02:18:56;8.67;;;5.10;;
7383;SDS011;3733;47.994;8.820;2024-03-25T02:21:21;4.57;;;4.10;;
7383;SDS011;3733;47.994;8.820;2024-03-25T02:23:47;12.80;;;5.00;;
7383;SDS011;3733;47.994;8.820;2024-03-25T02:26:16;9.77;;;5.70;;
7383;SDS011;3733;47.994;8.820;2024-03-25T02:28:41;7.10;;;5.27;;
7383;SDS011;3733;47.994;8.820;2024-03-25T02:31:07;6.80;;;5.23;;
7383;SDS011;3733;47.994;8.820;2024-03-25T02:33:32;4.83;;;4.23;;
7383;SDS011;3733;47.994;8.820;2024-03-25T02:35:58;7.47;;;4.40;;
7383;SDS011;3733;47.994;8.820;2024-03-25T02:38:23;5.03;;;4.00;;
7383;SDS011;3733;47.994;8.820;2024-03-25T02:40:49;6.70;;;4.70;;
7383;SDS011;3733;47.994;8.820;2024-03-25T02:43:15;7.17;;;4.60;;
7383;SDS011;3733;47.994;8.820;2024-03-25T02:45:44;7.83;;;4.57;;
7383;SDS011;3733;47.994;8.820;2024-03-25T02:48:10;8.33;;;4.87;;
7383;SDS011;3733;47.994;8.820;2024-03-25T02:50:36;4.63;;;3.87;;
7383;SDS011;3733;47.994;8.820;2024-03-25T02:53:01;5.30;;;4.47;;
7383;SDS011;3733;47.994;8.820;2024-03-25T02:55:27;7.23;;;5.10;;
7383;SDS011;3733;47.994;8.820;2024-03-25T02:57:52;6.43;;;4.60;;
7383;SDS011;3733;47.994;8.820;2024-03-25T03:00:18;6.07;;;4.27;;
7383;SDS011;3733;47.994;8.820;2024-03-25T03:02:43;6.90;;;5.00;;
7383;SDS011;3733;47.994;8.820;2024-03-25T03:05:09;9.00;;;4.60;;
7383;SDS011;3733;47.994;8.820;2024-03-25T03:07:35;6.57;;;4.70;;
7383;SDS011;3733;47.994;8.820;2024-03-25T03:10:00;8.13;;;4.90;;
7383;SDS011;3733;47.994;8.820;2024-03-25T03:12:26;6.60;;;4.90;;
7383;SDS011;3733;47.994;8.820;2024-03-25T03:14:51;7.00;;;4.70;;
7383;SDS011;3733;47.994;8.820;2024-03-25T03:17:17;8.03;;;4.70;;
7383;SDS011;3733;47.994;8.820;2024-03-25T03:19:43;13.43;;;5.40;;
7383;SDS011;3733;47.994;8.820;2024-03-25T03:22:08;9.70;;;5.47;;
7383;SDS011;3733;47.994;8.820;2024-03-25T03:24:34;7.80;;;4.87;;
7383;SDS011;3733;47.994;8.820;2024-03-25T03:26:59;6.80;;;5.40;;
7383;SDS011;3733;47.994;8.820;2024-03-25T03:29:25;7.77;;;5.57;;
7383;SDS011;3733;47.994;8.820;2024-03-25T03:31:51;9.60;;;5.40;;
7383;SDS011;3733;47.994;8.820;2024-03-25T03:34:16;22.97;;;6.00;;
7383;SDS011;3733;47.994;8.820;2024-03-25T03:36:42;11.50;;;5.00;;
7383;SDS011;3733;47.994;8.820;2024-03-25T03:39:07;15.40;;;6.43;;
7383;SDS011;3733;47.994;8.820;2024-03-25T03:41:36;10.17;;;5.83;;
7383;SDS011;3733;47.994;8.820;2024-03-25T03:44:02;9.80;;;7.07;;
7383;SDS011;3733;47.994;8.820;2024-03-25T03:46:27;8.70;;;5.83;;
7383;SDS011;3733;47.994;8.820;2024-03-25T03:48:53;12.03;;;6.00;;
7383;SDS011;3733;47.994;8.820;2024-03-25T03:51:19;12.07;;;6.13;;
7383;SDS011;3733;47.994;8.820;2024-03-25T03:53:44;13.77;;;6.83;;
7383;SDS011;3733;47.994;8.820;2024-03-25T03:56:10;10.17;;;6.00;;
7383;SDS011;3733;47.994;8.820;2024-03-25T03:58:35;10.57;;;6.40;;
7383;SDS011;3733;47.994;8.820;2024-03-25T04:01:01;11.73;;;6.30;;
7383;SDS011;3733;47.994;8.820;2024-03-25T04:03:28;12.20;;;5.67;;
7383;SDS011;3733;47.994;8.820;2024-03-25T04:05:53;10.97;;;5.93;;
7383;SDS011;3733;47.994;8.820;2024-03-25T04:08:19;9.53;;;6.20;;
7383;SDS011;3733;47.994;8.820;2024-03-25T04:10:44;14.40;;;6.33;;
7383;SDS011;3733;47.994;8.820;2024-03-25T04:13:11;11.87;;;6.87;;
7383;SDS011;3733;47.994;8.820;2024-03-25T04:15:37;59.80;;;7.77;;
7383;SDS011;3733;47.994;8.820;2024-03-25T04:18:03;68.10;;;8.10;;
7383;SDS011;3733;47.994;8.820;2024-03-25T04:20:29;12.00;;;6.40;;
7383;SDS011;3733;47.994;8.820;2024-03-25T04:23:01;54.23;;;7.00;;
7383;SDS011;3733;47.994;8.820;2024-03-25T04:25:26;23.40;;;7.17;;
7383;SDS011;3733;47.994;8.820;2024-03-25T04:27:52;12.67;;;7.40;;
7383;SDS011;3733;47.994;8.820;2024-03-25T04:30:17;17.90;;;7.27;;
7383;SDS011;3733;47.994;8.820;2024-03-25T04:32:44;15.43;;;6.73;;
7383;SDS011;3733;47.994;8.820;2024-03-25T04:35:10;33.13;;;6.53;;
7383;SDS011;3733;47.994;8.820;2024-03-25T04:37:36;12.70;;;6.37;;
7383;SDS011;3733;47.994;8.820;2024-03-25T04:40:02;25.27;;;8.23;;
7383;SDS011;3733;47.994;8.820;2024-03-25T04:42:28;12.97;;;6.77;;
7383;SDS011;3733;47.994;8.820;2024-03-25T04:44:53;12.77;;;6.20;;
7383;SDS011;3733;47.994;8.820;2024-03-25T04:47:19;33.90;;;8.13;;
7383;SDS011;3733;47.994;8.820;2024-03-25T04:49:45;14.67;;;6.50;;
7383;SDS011;3733;47.994;8.820;2024-03-25T04:52:11;47.33;;;7.07;;
7383;SDS011;3733;47.994;8.820;2024-03-25T04:54:48;22.20;;;6.03;;
7383;SDS011;3733;47.994;8.820;2024-03-25T04:57:14;48.77;;;8.00;;
7383;SDS011;3733;47.994;8.820;2024-03-25T04:59:39;17.33;;;7.27;;
7383;SDS011;3733;47.994;8.820;2024-03-25T05:02:05;42.13;;;6.97;;
7383;SDS011;3733;47.994;8.820;2024-03-25T05:04:30;12.97;;;5.73;;
7383;SDS011;3733;47.994;8.820;2024-03-25T05:06:56;11.03;;;6.20;;
7383;SDS011;3733;47.994;8.820;2024-03-25T05:09:22;10.80;;;5.90;;
7383;SDS011;3733;47.994;8.820;2024-03-25T05:11:47;16.23;;;6.17;;
7383;SDS011;3733;47.994;8.820;2024-03-25T05:14:13;16.13;;;6.93;;
7383;SDS011;3733;47.994;8.820;2024-03-25T05:16:38;23.27;;;6.50;;
7383;SDS011;3733;47.994;8.820;2024-03-25T05:19:04;17.57;;;6.90;;
7383;SDS011;3733;47.994;8.820;2024-03-25T05:21:30;11.07;;;5.40;;
7383;SDS011;3733;47.994;8.820;2024-03-25T05:23:56;18.00;;;6.83;;
7383;SDS011;3733;47.994;8.820;2024-03-25T05:26:22;27.77;;;8.00;;
7383;SDS011;3733;47.994;8.820;2024-03-25T05:28:52;23.23;;;7.70;;
7383;SDS011;3733;47.994;8.820;2024-03-25T05:31:21;23.60;;;7.10;;
7383;SDS011;3733;47.994;8.820;2024-03-25T05:33:46;18.13;;;7.73;;
7383;SDS011;3733;47.994;8.820;2024-03-25T05:36:12;31.13;;;8.53;;
7383;SDS011;3733;47.994;8.820;2024-03-25T05:38:38;62.00;;;9.27;;
7383;SDS011;3733;47.994;8.820;2024-03-25T05:41:04;18.17;;;7.87;;
7383;SDS011;3733;47.994;8.820;2024-03-25T05:43:30;21.90;;;9.20;;
7383;SDS011;3733;47.994;8.820;2024-03-25T05:45:56;16.33;;;9.00;;
7383;SDS011;3733;47.994;8.820;2024-03-25T05:48:23;22.00;;;8.30;;
7383;SDS011;3733;47.994;8.820;2024-03-25T05:53:30;16.43;;;8.57;;
7383;SDS011;3733;47.994;8.820;2024-03-25T05:55:55;19.37;;;9.03;;
7383;SDS011;3733;47.994;8.820;2024-03-25T05:58:21;22.47;;;8.63;;
7383;SDS011;3733;47.994;8.820;2024-03-25T06:00:47;17.47;;;8.10;;
7383;SDS011;3733;47.994;8.820;2024-03-25T06:03:13;23.97;;;8.10;;
7383;SDS011;3733;47.994;8.820;2024-03-25T06:05:39;22.07;;;8.90;;
7383;SDS011;3733;47.994;8.820;2024-03-25T06:08:06;17.50;;;8.17;;
7383;SDS011;3733;47.994;8.820;2024-03-25T06:10:36;18.40;;;8.33;;
7383;SDS011;3733;47.994;8.820;2024-03-25T06:13:02;16.83;;;8.33;;
7383;SDS011;3733;47.994;8.820;2024-03-25T06:15:28;18.87;;;8.00;;
7383;SDS011;3733;47.994;8.820;2024-03-25T06:17:53;13.50;;;8.17;;
7383;SDS011;3733;47.994;8.820;2024-03-25T06:20:19;27.93;;;6.40;;
7383;SDS011;3733;47.994;8.820;2024-03-25T06:22:45;14.83;;;7.30;;
7383;SDS011;3733;47.994;8.820;2024-03-25T06:25:10;12.23;;;6.67;;
7383;SDS011;3733;47.994;8.820;2024-03-25T06:27:36;15.10;;;7.50;;
7383;SDS011;3733;47.994;8.820;2024-03-25T06:30:02;18.93;;;8.50;;
7383;SDS011;3733;47.994;8.820;2024-03-25T06:32:53;23.20;;;7.27;;
7383;SDS011;3733;47.994;8.820;2024-03-25T06:35:37;17.50;;;7.90;;
7383;SDS011;3733;47.994;8.820;2024-03-25T06:38:03;16.93;;;8.10;;
7383;SDS011;3733;47.994;8.820;2024-03-25T06:40:29;21.30;;;7.10;;
7383;SDS011;3733;47.994;8.820;2024-03-25T06:42:55;18.73;;;8.57;;
7383;SDS011;3733;47.994;8.820;2024-03-25T06:45:21;19.03;;;9.10;;
7383;SDS011;3733;47.994;8.820;2024-03-25T06:47:47;17.03;;;8.40;;
7383;SDS011;3733;47.994;8.820;2024-03-25T06:50:12;22.70;;;8.10;;
7383;SDS011;3733;47.994;8.820;2024-03-25T06:52:38;16.63;;;8.67;;
7383;SDS011;3733;47.994;8.820;2024-03-25T06:55:04;19.23;;;8.47;;
7383;SDS011;3733;47.994;8.820;2024-03-25T06:57:29;28.27;;;10.03;;
7383;SDS011;3733;47.994;8.820;2024-03-25T06:59:55;18.47;;;9.10;;
7383;SDS011;3733;47.994;8.820;2024-03-25T07:02:22;19.40;;;10.10;;
7383;SDS011;3733;47.994;8.820;2024-03-25T07:04:48;17.80;;;9.87;;
7383;SDS011;3733;47.994;8.820;2024-03-25T07:07:14;19.97;;;10.43;;
7383;SDS011;3733;47.994;8.820;2024-03-25T07:09:39;24.27;;;10.17;;
7383;SDS011;3733;47.994;8.820;2024-03-25T07:12:06;24.00;;;8.67;;
7383;SDS011;3733;47.994;8.820;2024-03-25T07:14:32;33.13;;;9.43;;
7383;SDS011;3733;47.994;8.820;2024-03-25T07:16:57;30.57;;;9.97;;
7383;SDS011;3733;47.994;8.820;2024-03-25T07:19:23;39.73;;;10.30;;
7383;SDS011;3733;47.994;8.820;2024-03-25T07:21:49;56.87;;;10.00;;
7383;SDS011;3733;47.994;8.820;2024-03-25T07:24:14;22.87;;;8.33;;
7383;SDS011;3733;47.994;8.820;2024-03-25T07:26:40;15.60;;;7.73;;
7383;SDS011;3733;47.994;8.820;2024-03-25T07:29:06;19.70;;;7.60;;
7383;SDS011;3733;47.994;8.820;2024-03-25T07:31:32;19.87;;;8.43;;
7383;SDS011;3733;47.994;8.820;2024-03-25T07:33:58;21.80;;;8.13;;
7383;SDS011;3733;47.994;8.820;2024-03-25T07:36:23;25.53;;;7.70;;
7383;SDS011;3733;47.994;8.820;2024-03-25T07:38:49;60.57;;;11.00;;
7383;SDS011;3733;47.994;8.820;2024-03-25T07:41:15;13.23;;;7.60;;
7383;SDS011;3733;47.994;8.820;2024-03-25T07:43:40;23.97;;;9.10;;
7383;SDS011;3733;47.994;8.820;2024-03-25T07:46:06;26.73;;;8.87;;
7383;SDS011;3733;47.994;8.820;2024-03-25T07:48:32;23.80;;;8.30;;
7383;SDS011;3733;47.994;8.820;2024-03-25T07:50:57;15.17;;;7.57;;
7383;SDS011;3733;47.994;8.820;2024-03-25T07:53:23;23.07;;;9.60;;
7383;SDS011;3733;47.994;8.820;2024-03-25T07:55:48;22.33;;;8.07;;
7383;SDS011;3733;47.994;8.820;2024-03-25T07:58:16;12.73;;;7.77;;
7383;SDS011;3733;47.994;8.820;2024-03-25T08:00:41;19.03;;;7.50;;
7383;SDS011;3733;47.994;8.820;2024-03-25T08:03:07;24.60;;;7.50;;
7383;SDS011;3733;47.994;8.820;2024-03-25T08:05:33;17.00;;;6.30;;
7383;SDS011;3733;47.994;8.820;2024-03-25T08:07:58;9.53;;;6.00;;
7383;SDS011;3733;47.994;8.820;2024-03-25T08:10:24;19.67;;;7.00;;
7383;SDS011;3733;47.994;8.820;2024-03-25T08:12:50;8.40;;;6.07;;
7383;SDS011;3733;47.994;8.820;2024-03-25T08:15:15;6.87;;;5.00;;
7383;SDS011;3733;47.994;8.820;2024-03-25T08:17:41;11.47;;;6.73;;
7383;SDS011;3733;47.994;8.820;2024-03-25T08:20:06;23.37;;;7.13;;
7383;SDS011;3733;47.994;8.820;2024-03-25T08:22:33;11.60;;;6.40;;
7383;SDS011;3733;47.994;8.820;2024-03-25T08:24:59;12.77;;;7.53;;
7383;SDS011;3733;47.994;8.820;2024-03-25T08:27:24;12.87;;;7.07;;
7383;SDS011;3733;47.994;8.820;2024-03-25T08:29:50;11.90;;;6.47;;
7383;SDS011;3733;47.994;8.820;2024-03-25T08:32:18;9.00;;;5.67;;
7383;SDS011;3733;47.994;8.820;2024-03-25T08:34:44;11.33;;;6.03;;
7383;SDS011;3733;47.994;8.820;2024-03-25T08:37:10;11.80;;;6.73;;
7383;SDS011;3733;47.994;8.820;2024-03-25T08:39:36;12.30;;;6.47;;
7383;SDS011;3733;47.994;8.820;2024-03-25T08:42:01;10.60;;;6.50;;
7383;SDS011;3733;47.994;8.820;2024-03-25T08:44:27;10.23;;;6.97;;
7383;SDS011;3733;47.994;8.820;2024-03-25T08:46:52;10.77;;;7.40;;
7383;SDS011;3733;47.994;8.820;2024-03-25T08:49:18;13.73;;;7.43;;
7383;SDS011;3733;47.994;8.820;2024-03-25T08:51:43;14.13;;;7.50;;
7383;SDS011;3733;47.994;8.820;2024-03-25T08:54:09;11.90;;;7.57;;
7383;SDS011;3733;47.994;8.820;2024-03-25T08:56:35;10.00;;;6.00;;
7383;SDS011;3733;47.994;8.820;2024-03-25T08:59:00;10.77;;;6.80;;
7383;SDS011;3733;47.994;8.820;2024-03-25T09:01:26;9.60;;;6.50;;
7383;SDS011;3733;47.994;8.820;2024-03-25T09:03:52;9.80;;;6.40;;
7383;SDS011;3733;47.994;8.820;2024-03-25T09:06:17;8.60;;;5.97;;
7383;SDS011;3733;47.994;8.820;2024-03-25T09:08:43;9.20;;;7.00;;
7383;SDS011;3733;47.994;8.820;2024-03-25T09:11:27;11.27;;;5.60;;
7383;SDS011;3733;47.994;8.820;2024-03-25T09:13:53;10.90;;;6.90;;
7383;SDS011;3733;47.994;8.820;2024-03-25T09:16:18;9.13;;;6.00;;
7383;SDS011;3733;47.994;8.820;2024-03-25T09:18:44;9.20;;;5.40;;
7383;SDS011;3733;47.994;8.820;2024-03-25T09:21:10;9.40;;;6.70;;
7383;SDS011;3733;47.994;8.820;2024-03-25T09:23:36;9.93;;;6.13;;
7383;SDS011;3733;47.994;8.820;2024-03-25T09:26:01;12.73;;;6.10;;
7383;SDS011;3733;47.994;8.820;2024-03-25T09:28:27;8.90;;;5.80;;
7383;SDS011;3733;47.994;8.820;2024-03-25T09:30:53;8.97;;;6.30;;
7383;SDS011;3733;47.994;8.820;2024-03-25T09:33:18;7.73;;;5.80;;
7383;SDS011;3733;47.994;8.820;2024-03-25T09:35:44;7.80;;;5.97;;
7383;SDS011;3733;47.994;8.820;2024-03-25T09:38:10;10.70;;;5.40;;
7383;SDS011;3733;47.994;8.820;2024-03-25T09:40:35;5.83;;;4.53;;
7383;SDS011;3733;47.994;8.820;2024-03-25T09:43:05;10.27;;;5.10;;
7383;SDS011;3733;47.994;8.820;2024-03-25T09:45:40;8.83;;;5.23;;
7383;SDS011;3733;47.994;8.820;2024-03-25T09:48:07;8.60;;;4.90;;
7383;SDS011;3733;47.994;8.820;2024-03-25T09:50:34;6.33;;;4.80;;
7383;SDS011;3733;47.994;8.820;2024-03-25T09:53:00;6.30;;;4.37;;
7383;SDS011;3733;47.994;8.820;2024-03-25T09:55:26;8.20;;;4.67;;
7383;SDS011;3733;47.994;8.820;2024-03-25T09:57:52;4.87;;;3.63;;
7383;SDS011;3733;47.994;8.820;2024-03-25T10:00:18;6.20;;;4.20;;
7383;SDS011;3733;47.994;8.820;2024-03-25T10:02:44;6.43;;;3.50;;
7383;SDS011;3733;47.994;8.820;2024-03-25T10:05:10;9.20;;;3.90;;
7383;SDS011;3733;47.994;8.820;2024-03-25T10:07:36;6.77;;;3.50;;
7383;SDS011;3733;47.994;8.820;2024-03-25T10:10:05;5.17;;;3.30;;
7383;SDS011;3733;47.994;8.820;2024-03-25T10:12:31;5.50;;;2.90;;
7383;SDS011;3733;47.994;8.820;2024-03-25T10:14:57;5.00;;;3.03;;
7383;SDS011;3733;47.994;8.820;2024-03-25T10:17:23;6.53;;;3.80;;
7383;SDS011;3733;47.994;8.820;2024-03-25T10:19:49;6.03;;;3.10;;
7383;SDS011;3733;47.994;8.820;2024-03-25T10:22:15;8.47;;;2.90;;
7383;SDS011;3733;47.994;8.820;2024-03-25T10:24:42;5.33;;;2.40;;
7383;SDS011;3733;47.994;8.820;2024-03-25T10:27:19;3.00;;;2.23;;
7383;SDS011;3733;47.994;8.820;2024-03-25T10:29:48;7.90;;;2.83;;
7383;SDS011;3733;47.994;8.820;2024-03-25T10:32:16;4.93;;;2.67;;
7383;SDS011;3733;47.994;8.820;2024-03-25T10:34:42;3.23;;;2.23;;
7383;SDS011;3733;47.994;8.820;2024-03-25T10:37:09;9.67;;;2.20;;
7383;SDS011;3733;47.994;8.820;2024-03-25T10:39:39;6.30;;;2.07;;
7383;SDS011;3733;47.994;8.820;2024-03-25T10:42:08;5.33;;;2.03;;
7383;SDS011;3733;47.994;8.820;2024-03-25T10:44:38;7.07;;;2.13;;
7383;SDS011;3733;47.994;8.820;2024-03-25T10:47:05;3.73;;;2.10;;
7383;SDS011;3733;47.994;8.820;2024-03-25T10:52:18;5.23;;;2.20;;
7383;SDS011;3733;47.994;8.820;2024-03-25T10:54:46;3.20;;;2.40;;
7383;SDS011;3733;47.994;8.820;2024-03-25T10:57:13;3.80;;;2.30;;
7383;SDS011;3733;47.994;8.820;2024-03-25T10:59:39;6.00;;;2.70;;
7383;SDS011;3733;47.994;8.820;2024-03-25T11:02:07;4.67;;;2.20;;
7383;SDS011;3733;47.994;8.820;2024-03-25T11:04:34;2.63;;;2.00;;
7383;SDS011;3733;47.994;8.820;2024-03-25T11:07:10;3.67;;;2.10;;
7383;SDS011;3733;47.994;8.820;2024-03-25T11:09:37;6.27;;;2.53;;
7383;SDS011;3733;47.994;8.820;2024-03-25T11:12:03;3.57;;;2.00;;
7383;SDS011;3733;47.994;8.820;2024-03-25T11:14:29;4.30;;;2.00;;
7383;SDS011;3733;47.994;8.820;2024-03-25T11:16:57;2.90;;;1.93;;
7383;SDS011;3733;47.994;8.820;2024-03-25T11:19:28;2.93;;;1.90;;
7383;SDS011;3733;47.994;8.820;2024-03-25T11:21:55;2.97;;;2.20;;
7383;SDS011;3733;47.994;8.820;2024-03-25T11:24:32;3.17;;;2.10;;
7383;SDS011;3733;47.994;8.820;2024-03-25T11:27:01;5.90;;;2.30;;
7383;SDS011;3733;47.994;8.820;2024-03-25T11:29:27;3.00;;;2.50;;
7383;SDS011;3733;47.994;8.820;2024-03-25T11:31:53;3.50;;;2.30;;
7383;SDS011;3733;47.994;8.820;2024-03-25T11:34:19;5.20;;;2.17;;
7383;SDS011;3733;47.994;8.820;2024-03-25T11:36:45;5.90;;;3.03;;
7383;SDS011;3733;47.994;8.820;2024-03-25T11:39:12;3.47;;;2.50;;
7383;SDS011;3733;47.994;8.820;2024-03-25T11:41:44;6.83;;;2.73;;
7383;SDS011;3733;47.994;8.820;2024-03-25T11:44:10;8.43;;;2.00;;
7383;SDS011;3733;47.994;8.820;2024-03-25T11:46:40;3.23;;;2.23;;
7383;SDS011;3733;47.994;8.820;2024-03-25T11:49:15;2.20;;;1.97;;
7383;SDS011;3733;47.994;8.820;2024-03-25T11:51:44;3.67;;;2.23;;
7383;SDS011;3733;47.994;8.820;2024-03-25T11:54:11;6.50;;;2.20;;
7383;SDS011;3733;47.994;8.820;2024-03-25T11:56:37;5.33;;;1.97;;
7383;SDS011;3733;47.994;8.820;2024-03-25T11:59:03;6.23;;;2.27;;
7383;SDS011;3733;47.994;8.820;2024-03-25T12:01:29;2.43;;;1.83;;
7383;SDS011;3733;47.994;8.820;2024-03-25T12:04:09;2.30;;;1.87;;
7383;SDS011;3733;47.994;8.820;2024-03-25T12:06:41;3.60;;;2.00;;
7383;SDS011;3733;47.994;8.820;2024-03-25T12:09:07;3.10;;;1.90;;
7383;SDS011;3733;47.994;8.820;2024-03-25T12:11:51;2.60;;;1.90;;
7383;SDS011;3733;47.994;8.820;2024-03-25T12:14:17;3.17;;;1.70;;
7383;SDS011;3733;47.994;8.820;2024-03-25T12:16:44;4.33;;;2.00;;
7383;SDS011;3733;47.994;8.820;2024-03-25T12:19:09;10.00;;;2.20;;
7383;SDS011;3733;47.994;8.820;2024-03-25T12:21:36;4.07;;;1.90;;
7383;SDS011;3733;47.994;8.820;2024-03-25T12:24:02;3.80;;;1.97;;
7383;SDS011;3733;47.994;8.820;2024-03-25T12:26:28;4.93;;;1.90;;
7383;SDS011;3733;47.994;8.820;2024-03-25T12:28:57;3.07;;;2.10;;
7383;SDS011;3733;47.994;8.820;2024-03-25T12:31:23;1.90;;;1.70;;
7383;SDS011;3733;47.994;8.820;2024-03-25T12:33:49;2.33;;;2.07;;
7383;SDS011;3733;47.994;8.820;2024-03-25T12:36:14;3.93;;;2.10;;
7383;SDS011;3733;47.994;8.820;2024-03-25T12:38:40;2.00;;;1.50;;
7383;SDS011;3733;47.994;8.820;2024-03-25T12:41:06;2.93;;;1.83;;
7383;SDS011;3733;47.994;8.820;2024-03-25T12:43:34;1.90;;;1.70;;
7383;SDS011;3733;47.994;8.820;2024-03-25T12:46:00;2.60;;;2.00;;
7383;SDS011;3733;47.994;8.820;2024-03-25T12:48:30;3.47;;;2.00;;
7383;SDS011;3733;47.994;8.820;2024-03-25T12:50:55;2.60;;;1.77;;
7383;SDS011;3733;47.994;8.820;2024-03-25T12:53:21;2.83;;;2.10;;
7383;SDS011;3733;47.994;8.820;2024-03-25T12:55:47;2.63;;;1.93;;
7383;SDS011;3733;47.994;8.820;2024-03-25T12:58:13;3.70;;;1.73;;
7383;SDS011;3733;47.994;8.820;2024-03-25T13:00:39;2.47;;;1.80;;
7383;SDS011;3733;47.994;8.820;2024-03-25T13:03:05;4.87;;;1.90;;
7383;SDS011;3733;47.994;8.820;2024-03-25T13:05:32;1.77;;;1.60;;
7383;SDS011;3733;47.994;8.820;2024-03-25T13:07:58;3.33;;;1.80;;
7383;SDS011;3733;47.994;8.820;2024-03-25T13:10:24;2.10;;;1.90;;
7383;SDS011;3733;47.994;8.820;2024-03-25T13:12:50;1.50;;;1.40;;
7383;SDS011;3733;47.994;8.820;2024-03-25T13:15:15;1.80;;;1.70;;
7383;SDS011;3733;47.994;8.820;2024-03-25T13:17:41;1.77;;;1.50;;
7383;SDS011;3733;47.994;8.820;2024-03-25T13:20:07;2.37;;;1.70;;
7383;SDS011;3733;47.994;8.820;2024-03-25T13:22:33;2.07;;;1.47;;
7383;SDS011;3733;47.994;8.820;2024-03-25T13:24:58;2.63;;;1.50;;
7383;SDS011;3733;47.994;8.820;2024-03-25T13:27:27;1.60;;;1.40;;
7383;SDS011;3733;47.994;8.820;2024-03-25T13:29:53;1.60;;;1.50;;
7383;SDS011;3733;47.994;8.820;2024-03-25T13:32:19;3.63;;;1.50;;
7383;SDS011;3733;47.994;8.820;2024-03-25T13:34:45;2.00;;;1.80;;
7383;SDS011;3733;47.994;8.820;2024-03-25T13:37:11;3.30;;;2.07;;
7383;SDS011;3733;47.994;8.820;2024-03-25T13:39:37;3.53;;;1.50;;
7383;SDS011;3733;47.994;8.820;2024-03-25T13:42:03;1.90;;;1.70;;
7383;SDS011;3733;47.994;8.820;2024-03-25T13:44:29;3.70;;;1.80;;
7383;SDS011;3733;47.994;8.820;2024-03-25T13:46:54;3.43;;;1.57;;
7383;SDS011;3733;47.994;8.820;2024-03-25T13:49:20;2.17;;;1.70;;
7383;SDS011;3733;47.994;8.820;2024-03-25T13:51:47;2.50;;;1.60;;
7383;SDS011;3733;47.994;8.820;2024-03-25T13:54:13;3.50;;;1.50;;
7383;SDS011;3733;47.994;8.820;2024-03-25T13:56:39;3.07;;;2.00;;
7383;SDS011;3733;47.994;8.820;2024-03-25T13:59:06;2.63;;;1.37;;
7383;SDS011;3733;47.994;8.820;2024-03-25T14:01:32;3.07;;;1.60;;
7383;SDS011;3733;47.994;8.820;2024-03-25T14:03:58;3.17;;;1.83;;
7383;SDS011;3733;47.994;8.820;2024-03-25T14:06:24;2.90;;;1.47;;
7383;SDS011;3733;47.994;8.820;2024-03-25T14:08:50;1.80;;;1.20;;
7383;SDS011;3733;47.994;8.820;2024-03-25T14:11:16;1.40;;;1.30;;
7383;SDS011;3733;47.994;8.820;2024-03-25T14:13:41;2.33;;;1.80;;
7383;SDS011;3733;47.994;8.820;2024-03-25T14:16:07;7.40;;;2.10;;
7383;SDS011;3733;47.994;8.820;2024-03-25T14:18:33;1.60;;;1.20;;
7383;SDS011;3733;47.994;8.820;2024-03-25T14:20:58;8.23;;;1.80;;
7383;SDS011;3733;47.994;8.820;2024-03-25T14:23:24;5.20;;;1.77;;
7383;SDS011;3733;47.994;8.820;2024-03-25T14:25:49;2.13;;;1.43;;
7383;SDS011;3733;47.994;8.820;2024-03-25T14:28:15;1.87;;;1.50;;
7383;SDS011;3733;47.994;8.820;2024-03-25T14:30:40;1.93;;;1.73;;
7383;SDS011;3733;47.994;8.820;2024-03-25T14:33:06;2.20;;;1.60;;
7383;SDS011;3733;47.994;8.820;2024-03-25T14:35:32;3.00;;;1.47;;
7383;SDS011;3733;47.994;8.820;2024-03-25T14:37:58;2.40;;;1.60;;
7383;SDS011;3733;47.994;8.820;2024-03-25T14:40:23;2.73;;;1.47;;
7383;SDS011;3733;47.994;8.820;2024-03-25T14:42:49;3.00;;;1.97;;
7383;SDS011;3733;47.994;8.820;2024-03-25T14:45:14;1.93;;;1.40;;
7383;SDS011;3733;47.994;8.820;2024-03-25T14:47:40;4.80;;;1.70;;
7383;SDS011;3733;47.994;8.820;2024-03-25T14:50:06;4.20;;;1.40;;
7383;SDS011;3733;47.994;8.820;2024-03-25T14:52:32;2.90;;;1.40;;
7383;SDS011;3733;47.994;8.820;2024-03-25T14:54:57;2.20;;;1.57;;
7383;SDS011;3733;47.994;8.820;2024-03-25T14:57:23;8.70;;;2.10;;
7383;SDS011;3733;47.994;8.820;2024-03-25T14:59:49;5.47;;;2.00;;
7383;SDS011;3733;47.994;8.820;2024-03-25T15:02:14;2.00;;;1.83;;
7383;SDS011;3733;47.994;8.820;2024-03-25T15:04:41;1.83;;;1.50;;
7383;SDS011;3733;47.994;8.820;2024-03-25T15:07:09;1.90;;;1.40;;
7383;SDS011;3733;47.994;8.820;2024-03-25T15:09:35;2.17;;;1.90;;